Hunt, Texas
Current Conditions -  °F | °C
As of 11:55 AM on Thursday 23 Oct 2014 (Local Time) from KERV Reporting Station
Broken Clouds Broken Clouds  
Wind Chill: 72°   Ceiling: 2300
Heat Index: 72°   Visibility: 10mi
Dew Point: 64°   Wind: 5mph
Humidity: 77%   Direction: 190°S
Pressure: 30.19"   Gusts: NA
Location:  30.07°N, 99.34°W
Report Text: KERV 231655Z AUTO 19004KT 10SM SCT017 BKN023 22/18 A3019 RMK AO2 T02200179
Loading
Personal Weather Stations






























Interactive Weather Map New forecast layout! Learn more

10-Day Weather Forecast

Advertisements
Track Severe Weather on mobile